sensor_id;sensor_type;location;lat;lon;timestamp;temperature;humidity
33109;HTU21D;19481;51.118;6.940;2023-04-06T00:03:02;2.78;46.69
33109;HTU21D;19481;51.118;6.940;2023-04-06T00:08:04;2.67;46.89
33109;HTU21D;19481;51.118;6.940;2023-04-06T00:13:06;2.75;47.05
33109;HTU21D;19481;51.118;6.940;2023-04-06T00:18:09;2.68;47.44
33109;HTU21D;19481;51.118;6.940;2023-04-06T00:23:10;2.65;47.42
33109;HTU21D;19481;51.118;6.940;2023-04-06T00:28:12;2.70;47.57
33109;HTU21D;19481;51.118;6.940;2023-04-06T00:33:15;2.53;47.77
33109;HTU21D;19481;51.118;6.940;2023-04-06T00:38:17;2.40;48.04
33109;HTU21D;19481;51.118;6.940;2023-04-06T00:43:19;2.43;47.76
33109;HTU21D;19481;51.118;6.940;2023-04-06T00:48:22;2.31;47.50
33109;HTU21D;19481;51.118;6.940;2023-04-06T00:53:23;2.26;47.70
33109;HTU21D;19481;51.118;6.940;2023-04-06T00:58:25;2.36;47.26
33109;HTU21D;19481;51.118;6.940;2023-04-06T01:03:28;2.39;47.19
33109;HTU21D;19481;51.118;6.940;2023-04-06T01:08:30;2.24;47.54
33109;HTU21D;19481;51.118;6.940;2023-04-06T01:13:32;2.15;47.65
33109;HTU21D;19481;51.118;6.940;2023-04-06T01:18:35;2.09;47.66
33109;HTU21D;19481;51.118;6.940;2023-04-06T01:23:38;2.05;47.76
33109;HTU21D;19481;51.118;6.940;2023-04-06T01:28:40;2.21;47.72
33109;HTU21D;19481;51.118;6.940;2023-04-06T01:33:41;2.35;47.76
33109;HTU21D;19481;51.118;6.940;2023-04-06T01:38:44;2.43;47.23
33109;HTU21D;19481;51.118;6.940;2023-04-06T01:43:47;2.23;47.60
33109;HTU21D;19481;51.118;6.940;2023-04-06T01:48:49;1.93;48.74
33109;HTU21D;19481;51.118;6.940;2023-04-06T01:53:52;1.69;48.95
33109;HTU21D;19481;51.118;6.940;2023-04-06T01:58:53;1.58;49.92
33109;HTU21D;19481;51.118;6.940;2023-04-06T02:03:55;1.46;50.14
33109;HTU21D;19481;51.118;6.940;2023-04-06T02:08:58;1.38;49.73
33109;HTU21D;19481;51.118;6.940;2023-04-06T02:14:00;1.32;50.28
33109;HTU21D;19481;51.118;6.940;2023-04-06T02:19:02;1.13;50.90
33109;HTU21D;19481;51.118;6.940;2023-04-06T02:24:05;1.07;50.75
33109;HTU21D;19481;51.118;6.940;2023-04-06T02:29:07;0.98;51.07
33109;HTU21D;19481;51.118;6.940;2023-04-06T02:34:08;0.97;50.88
33109;HTU21D;19481;51.118;6.940;2023-04-06T02:39:13;0.99;50.29
33109;HTU21D;19481;51.118;6.940;2023-04-06T02:44:15;0.99;50.69
33109;HTU21D;19481;51.118;6.940;2023-04-06T02:49:17;1.01;50.98
33109;HTU21D;19481;51.118;6.940;2023-04-06T02:54:20;1.01;50.79
33109;HTU21D;19481;51.118;6.940;2023-04-06T02:59:22;1.10;51.07
33109;HTU21D;19481;51.118;6.940;2023-04-06T03:04:23;1.32;50.95
33109;HTU21D;19481;51.118;6.940;2023-04-06T03:09:27;1.13;50.34
33109;HTU21D;19481;51.118;6.940;2023-04-06T03:14:28;1.13;50.89
33109;HTU21D;19481;51.118;6.940;2023-04-06T03:19:30;1.08;50.99
33109;HTU21D;19481;51.118;6.940;2023-04-06T03:24:33;0.99;50.78
33109;HTU21D;19481;51.118;6.940;2023-04-06T03:29:35;0.84;51.27
33109;HTU21D;19481;51.118;6.940;2023-04-06T03:34:37;0.89;51.20
33109;HTU21D;19481;51.118;6.940;2023-04-06T03:39:40;0.84;51.02
33109;HTU21D;19481;51.118;6.940;2023-04-06T03:44:41;0.68;51.62
33109;HTU21D;19481;51.118;6.940;2023-04-06T03:49:43;0.64;51.66
33109;HTU21D;19481;51.118;6.940;2023-04-06T03:54:46;0.78;51.89
33109;HTU21D;19481;51.118;6.940;2023-04-06T03:59:48;0.88;52.24
33109;HTU21D;19481;51.118;6.940;2023-04-06T04:04:49;0.96;51.56
33109;HTU21D;19481;51.118;6.940;2023-04-06T04:09:52;1.18;52.11
33109;HTU21D;19481;51.118;6.940;2023-04-06T04:14:54;1.10;51.53
33109;HTU21D;19481;51.118;6.940;2023-04-06T04:19:55;1.09;51.71
33109;HTU21D;19481;51.118;6.940;2023-04-06T04:24:58;1.02;52.12
33109;HTU21D;19481;51.118;6.940;2023-04-06T04:30:00;0.94;52.00
33109;HTU21D;19481;51.118;6.940;2023-04-06T04:35:02;0.74;51.82
33109;HTU21D;19481;51.118;6.940;2023-04-06T04:40:07;0.88;51.93
33109;HTU21D;19481;51.118;6.940;2023-04-06T04:45:09;0.84;52.26
33109;HTU21D;19481;51.118;6.940;2023-04-06T04:50:11;0.77;52.27
33109;HTU21D;19481;51.118;6.940;2023-04-06T04:55:14;0.84;51.65
33109;HTU21D;19481;51.118;6.940;2023-04-06T05:00:16;1.02;52.24
33109;HTU21D;19481;51.118;6.940;2023-04-06T05:05:18;1.04;51.66
33109;HTU21D;19481;51.118;6.940;2023-04-06T05:10:21;1.10;50.98
33109;HTU21D;19481;51.118;6.940;2023-04-06T05:15:22;1.29;51.19
33109;HTU21D;19481;51.118;6.940;2023-04-06T05:20:24;1.56;50.56
33109;HTU21D;19481;51.118;6.940;2023-04-06T05:25:27;1.61;49.60
33109;HTU21D;19481;51.118;6.940;2023-04-06T05:30:29;1.76;49.37
33109;HTU21D;19481;51.118;6.940;2023-04-06T05:35:31;1.72;49.85
33109;HTU21D;19481;51.118;6.940;2023-04-06T05:40:34;1.86;49.44
33109;HTU21D;19481;51.118;6.940;2023-04-06T05:45:35;1.94;49.51
33109;HTU21D;19481;51.118;6.940;2023-04-06T05:50:37;2.28;48.83
33109;HTU21D;19481;51.118;6.940;2023-04-06T05:55:40;2.59;47.96
33109;HTU21D;19481;51.118;6.940;2023-04-06T06:00:41;2.91;47.47
33109;HTU21D;19481;51.118;6.940;2023-04-06T06:05:46;3.05;47.12
33109;HTU21D;19481;51.118;6.940;2023-04-06T06:10:48;3.30;47.03
33109;HTU21D;19481;51.118;6.940;2023-04-06T06:15:50;3.55;46.42
33109;HTU21D;19481;51.118;6.940;2023-04-06T06:20:52;3.76;46.40
33109;HTU21D;19481;51.118;6.940;2023-04-06T06:25:55;4.20;45.64
33109;HTU21D;19481;51.118;6.940;2023-04-06T06:30:58;7.70;39.00
33109;HTU21D;19481;51.118;6.940;2023-04-06T06:36:00;9.79;35.91
33109;HTU21D;19481;51.118;6.940;2023-04-06T06:41:02;9.98;39.74
33109;HTU21D;19481;51.118;6.940;2023-04-06T06:46:04;8.19;47.05
33109;HTU21D;19481;51.118;6.940;2023-04-06T06:51:06;10.03;42.49
33109;HTU21D;19481;51.118;6.940;2023-04-06T06:56:11;11.38;40.43
33109;HTU21D;19481;51.118;6.940;2023-04-06T07:01:13;11.94;40.17
33109;HTU21D;19481;51.118;6.940;2023-04-06T07:06:14;12.65;39.73
33109;HTU21D;19481;51.118;6.940;2023-04-06T07:11:17;14.06;36.65
33109;HTU21D;19481;51.118;6.940;2023-04-06T07:16:19;13.89;38.39
33109;HTU21D;19481;51.118;6.940;2023-04-06T07:21:20;13.95;38.58
33109;HTU21D;19481;51.118;6.940;2023-04-06T07:26:23;13.60;36.87
33109;HTU21D;19481;51.118;6.940;2023-04-06T07:31:25;14.58;35.71
33109;HTU21D;19481;51.118;6.940;2023-04-06T07:36:27;15.29;36.29
33109;HTU21D;19481;51.118;6.940;2023-04-06T07:41:30;15.09;34.11
33109;HTU21D;19481;51.118;6.940;2023-04-06T07:46:31;12.29;42.18
33109;HTU21D;19481;51.118;6.940;2023-04-06T07:51:35;11.34;37.08
33109;HTU21D;19481;51.118;6.940;2023-04-06T07:56:38;12.06;37.48
33109;HTU21D;19481;51.118;6.940;2023-04-06T08:01:40;12.49;36.51
33109;HTU21D;19481;51.118;6.940;2023-04-06T08:06:42;13.35;34.62
33109;HTU21D;19481;51.118;6.940;2023-04-06T08:11:45;12.75;35.22
33109;HTU21D;19481;51.118;6.940;2023-04-06T08:16:48;12.04;36.69
33109;HTU21D;19481;51.118;6.940;2023-04-06T08:21:49;13.49;34.02
33109;HTU21D;19481;51.118;6.940;2023-04-06T08:26:53;14.50;33.07
33109;HTU21D;19481;51.118;6.940;2023-04-06T08:31:54;14.44;33.88
33109;HTU21D;19481;51.118;6.940;2023-04-06T08:36:56;14.62;33.56
33109;HTU21D;19481;51.118;6.940;2023-04-06T08:42:00;14.44;31.47
33109;HTU21D;19481;51.118;6.940;2023-04-06T08:47:04;14.28;33.23
33109;HTU21D;19481;51.118;6.940;2023-04-06T08:52:06;14.20;33.26
33109;HTU21D;19481;51.118;6.940;2023-04-06T08:57:10;14.06;32.42
33109;HTU21D;19481;51.118;6.940;2023-04-06T09:02:16;14.29;32.87
33109;HTU21D;19481;51.118;6.940;2023-04-06T09:07:18;14.34;32.64
33109;HTU21D;19481;51.118;6.940;2023-04-06T09:12:25;14.53;30.38
33109;HTU21D;19481;51.118;6.940;2023-04-06T09:17:29;15.07;30.32
33109;HTU21D;19481;51.118;6.940;2023-04-06T09:22:36;14.87;30.51
33109;HTU21D;19481;51.118;6.940;2023-04-06T09:27:39;14.48;31.69
33109;HTU21D;19481;51.118;6.940;2023-04-06T09:32:45;14.80;29.74
33109;HTU21D;19481;51.118;6.940;2023-04-06T09:37:48;14.63;31.25
33109;HTU21D;19481;51.118;6.940;2023-04-06T09:42:51;13.85;31.45
33109;HTU21D;19481;51.118;6.940;2023-04-06T09:47:55;14.68;30.37
33109;HTU21D;19481;51.118;6.940;2023-04-06T09:52:57;14.74;30.16
33109;HTU21D;19481;51.118;6.940;2023-04-06T09:58:05;14.83;29.87
33109;HTU21D;19481;51.118;6.940;2023-04-06T10:03:13;14.87;30.25
33109;HTU21D;19481;51.118;6.940;2023-04-06T10:08:16;14.80;30.40
33109;HTU21D;19481;51.118;6.940;2023-04-06T10:13:20;14.98;30.00
33109;HTU21D;19481;51.118;6.940;2023-04-06T10:18:24;15.38;29.91
33109;HTU21D;19481;51.118;6.940;2023-04-06T10:23:31;15.86;27.18
33109;HTU21D;19481;51.118;6.940;2023-04-06T10:28:35;15.57;29.89
33109;HTU21D;19481;51.118;6.940;2023-04-06T10:33:37;15.33;29.76
33109;HTU21D;19481;51.118;6.940;2023-04-06T10:38:39;15.06;31.19
33109;HTU21D;19481;51.118;6.940;2023-04-06T10:43:42;15.38;30.61
33109;HTU21D;19481;51.118;6.940;2023-04-06T10:48:45;15.26;31.09
33109;HTU21D;19481;51.118;6.940;2023-04-06T10:53:47;15.12;29.95
33109;HTU21D;19481;51.118;6.940;2023-04-06T10:58:52;15.37;30.22
33109;HTU21D;19481;51.118;6.940;2023-04-06T11:03:57;15.70;29.25
33109;HTU21D;19481;51.118;6.940;2023-04-06T11:08:59;15.30;31.09
33109;HTU21D;19481;51.118;6.940;2023-04-06T11:14:02;15.48;30.93
33109;HTU21D;19481;51.118;6.940;2023-04-06T11:19:05;16.00;29.00
33109;HTU21D;19481;51.118;6.940;2023-04-06T11:24:11;16.13;29.32
33109;HTU21D;19481;51.118;6.940;2023-04-06T11:29:15;15.56;30.20
33109;HTU21D;19481;51.118;6.940;2023-04-06T11:34:18;15.76;30.64
33109;HTU21D;19481;51.118;6.940;2023-04-06T11:39:21;15.82;30.57
33109;HTU21D;19481;51.118;6.940;2023-04-06T11:44:31;15.83;28.63
33109;HTU21D;19481;51.118;6.940;2023-04-06T11:49:36;15.18;31.51
33109;HTU21D;19481;51.118;6.940;2023-04-06T11:54:39;15.40;31.23
33109;HTU21D;19481;51.118;6.940;2023-04-06T11:59:42;15.56;30.83
33109;HTU21D;19481;51.118;6.940;2023-04-06T12:04:44;15.36;31.65
33109;HTU21D;19481;51.118;6.940;2023-04-06T12:09:46;14.95;32.40
33109;HTU21D;19481;51.118;6.940;2023-04-06T12:14:49;15.17;31.82
33109;HTU21D;19481;51.118;6.940;2023-04-06T12:19:50;15.54;31.29
33109;HTU21D;19481;51.118;6.940;2023-04-06T12:24:52;15.70;31.45
33109;HTU21D;19481;51.118;6.940;2023-04-06T12:29:55;15.83;31.57
33109;HTU21D;19481;51.118;6.940;2023-04-06T12:34:56;15.54;32.36
33109;HTU21D;19481;51.118;6.940;2023-04-06T12:39:58;15.88;31.86
33109;HTU21D;19481;51.118;6.940;2023-04-06T12:45:02;15.54;32.14
33109;HTU21D;19481;51.118;6.940;2023-04-06T12:50:05;15.55;32.22
33109;HTU21D;19481;51.118;6.940;2023-04-06T12:55:07;15.48;32.15
33109;HTU21D;19481;51.118;6.940;2023-04-06T13:00:12;15.43;32.35
33109;HTU21D;19481;51.118;6.940;2023-04-06T13:05:15;15.38;32.50
33109;HTU21D;19481;51.118;6.940;2023-04-06T13:10:18;15.55;32.26
33109;HTU21D;19481;51.118;6.940;2023-04-06T13:15:21;15.38;32.40
33109;HTU21D;19481;51.118;6.940;2023-04-06T13:20:23;15.23;32.98
33109;HTU21D;19481;51.118;6.940;2023-04-06T13:25:25;14.91;33.63
33109;HTU21D;19481;51.118;6.940;2023-04-06T13:30:36;14.97;33.26
33109;HTU21D;19481;51.118;6.940;2023-04-06T13:35:37;14.55;34.05
33109;HTU21D;19481;51.118;6.940;2023-04-06T13:40:39;14.55;33.86
33109;HTU21D;19481;51.118;6.940;2023-04-06T13:45:48;14.49;34.83
33109;HTU21D;19481;51.118;6.940;2023-04-06T13:50:50;14.27;34.69
33109;HTU21D;19481;51.118;6.940;2023-04-06T13:55:53;14.09;35.27
33109;HTU21D;19481;51.118;6.940;2023-04-06T14:01:01;13.58;36.83
33109;HTU21D;19481;51.118;6.940;2023-04-06T14:06:09;13.61;39.47
33109;HTU21D;19481;51.118;6.940;2023-04-06T14:11:11;13.39;36.18
33109;HTU21D;19481;51.118;6.940;2023-04-06T14:16:15;13.32;36.20
33109;HTU21D;19481;51.118;6.940;2023-04-06T14:21:19;13.12;36.53
33109;HTU21D;19481;51.118;6.940;2023-04-06T14:26:21;12.62;38.05
33109;HTU21D;19481;51.118;6.940;2023-04-06T14:31:24;12.46;38.36
33109;HTU21D;19481;51.118;6.940;2023-04-06T14:36:26;12.19;39.05
33109;HTU21D;19481;51.118;6.940;2023-04-06T14:41:29;11.92;39.56
33109;HTU21D;19481;51.118;6.940;2023-04-06T14:46:32;11.83;39.45
33109;HTU21D;19481;51.118;6.940;2023-04-06T14:51:34;11.62;40.35
33109;HTU21D;19481;51.118;6.940;2023-04-06T14:56:36;11.34;43.16
33109;HTU21D;19481;51.118;6.940;2023-04-06T15:01:40;11.36;47.50
33109;HTU21D;19481;51.118;6.940;2023-04-06T15:06:41;11.26;42.56
33109;HTU21D;19481;51.118;6.940;2023-04-06T15:11:43;10.94;46.01
33109;HTU21D;19481;51.118;6.940;2023-04-06T15:16:46;10.60;47.53
33109;HTU21D;19481;51.118;6.940;2023-04-06T15:21:47;10.31;47.46
33109;HTU21D;19481;51.118;6.940;2023-04-06T15:26:49;10.23;46.48
33109;HTU21D;19481;51.118;6.940;2023-04-06T15:31:52;10.19;46.98
33109;HTU21D;19481;51.118;6.940;2023-04-06T15:36:54;10.14;46.73
33109;HTU21D;19481;51.118;6.940;2023-04-06T15:41:59;10.01;47.53
33109;HTU21D;19481;51.118;6.940;2023-04-06T15:47:02;9.90;51.44
33109;HTU21D;19481;51.118;6.940;2023-04-06T15:52:03;9.76;50.88
33109;HTU21D;19481;51.118;6.940;2023-04-06T15:57:05;9.67;49.68
33109;HTU21D;19481;51.118;6.940;2023-04-06T16:02:08;9.55;50.36
33109;HTU21D;19481;51.118;6.940;2023-04-06T16:07:10;9.41;51.17
33109;HTU21D;19481;51.118;6.940;2023-04-06T16:12:11;9.38;51.05
33109;HTU21D;19481;51.118;6.940;2023-04-06T16:17:15;9.22;52.09
33109;HTU21D;19481;51.118;6.940;2023-04-06T16:22:16;9.12;53.43
33109;HTU21D;19481;51.118;6.940;2023-04-06T16:27:18;9.08;55.36
33109;HTU21D;19481;51.118;6.940;2023-04-06T16:32:21;8.98;55.81
33109;HTU21D;19481;51.118;6.940;2023-04-06T16:37:23;8.92;57.22
33109;HTU21D;19481;51.118;6.940;2023-04-06T16:42:26;8.88;54.94
33109;HTU21D;19481;51.118;6.940;2023-04-06T16:47:29;8.85;55.23
33109;HTU21D;19481;51.118;6.940;2023-04-06T16:52:30;8.71;56.71
33109;HTU21D;19481;51.118;6.940;2023-04-06T16:57:32;8.74;62.76
33109;HTU21D;19481;51.118;6.940;2023-04-06T17:02:35;8.74;56.10
33109;HTU21D;19481;51.118;6.940;2023-04-06T17:07:36;8.62;58.58
33109;HTU21D;19481;51.118;6.940;2023-04-06T17:12:38;8.58;57.26
33109;HTU21D;19481;51.118;6.940;2023-04-06T17:17:41;8.56;57.39
33109;HTU21D;19481;51.118;6.940;2023-04-06T17:22:43;8.46;64.26
33109;HTU21D;19481;51.118;6.940;2023-04-06T17:27:48;8.39;58.48
33109;HTU21D;19481;51.118;6.940;2023-04-06T17:32:52;8.30;60.75
33109;HTU21D;19481;51.118;6.940;2023-04-06T17:37:54;8.30;62.18
33109;HTU21D;19481;51.118;6.940;2023-04-06T17:42:55;8.21;60.67
33109;HTU21D;19481;51.118;6.940;2023-04-06T17:47:58;8.19;61.98
33109;HTU21D;19481;51.118;6.940;2023-04-06T17:53:00;8.14;62.55
33109;HTU21D;19481;51.118;6.940;2023-04-06T17:58:02;8.11;69.45
33109;HTU21D;19481;51.118;6.940;2023-04-06T18:03:05;8.15;60.43
33109;HTU21D;19481;51.118;6.940;2023-04-06T18:08:06;8.09;64.66
33109;HTU21D;19481;51.118;6.940;2023-04-06T18:13:08;8.05;64.71
33109;HTU21D;19481;51.118;6.940;2023-04-06T18:18:12;7.99;62.43
33109;HTU21D;19481;51.118;6.940;2023-04-06T18:23:14;7.91;64.10
33109;HTU21D;19481;51.118;6.940;2023-04-06T18:28:15;7.90;65.22
33109;HTU21D;19481;51.118;6.940;2023-04-06T18:33:18;7.89;63.32
33109;HTU21D;19481;51.118;6.940;2023-04-06T18:38:20;7.81;68.21
33109;HTU21D;19481;51.118;6.940;2023-04-06T18:43:21;7.78;66.39
33109;HTU21D;19481;51.118;6.940;2023-04-06T18:48:25;7.75;67.16
33109;HTU21D;19481;51.118;6.940;2023-04-06T18:53:27;7.70;66.99
33109;HTU21D;19481;51.118;6.940;2023-04-06T18:58:29;7.72;66.83
33109;HTU21D;19481;51.118;6.940;2023-04-06T19:03:32;7.67;70.70
33109;HTU21D;19481;51.118;6.940;2023-04-06T19:08:35;7.63;72.55
33109;HTU21D;19481;51.118;6.940;2023-04-06T19:13:36;7.59;68.17
33109;HTU21D;19481;51.118;6.940;2023-04-06T19:18:39;7.60;68.24
33109;HTU21D;19481;51.118;6.940;2023-04-06T19:23:43;7.60;67.52
33109;HTU21D;19481;51.118;6.940;2023-04-06T19:28:45;7.58;74.68
33109;HTU21D;19481;51.118;6.940;2023-04-06T19:33:48;7.56;67.60
33109;HTU21D;19481;51.118;6.940;2023-04-06T19:38:51;7.48;70.48
33109;HTU21D;19481;51.118;6.940;2023-04-06T19:43:52;7.48;69.04
33109;HTU21D;19481;51.118;6.940;2023-04-06T19:48:55;7.49;69.24
33109;HTU21D;19481;51.118;6.940;2023-04-06T19:53:57;7.47;76.95
33109;HTU21D;19481;51.118;6.940;2023-04-06T19:58:59;7.49;69.94
33109;HTU21D;19481;51.118;6.940;2023-04-06T20:04:02;7.49;68.51
33109;HTU21D;19481;51.118;6.940;2023-04-06T20:09:03;7.48;70.77
33109;HTU21D;19481;51.118;6.940;2023-04-06T20:14:05;7.47;70.90
33109;HTU21D;19481;51.118;6.940;2023-04-06T20:19:08;7.49;70.10
33109;HTU21D;19481;51.118;6.940;2023-04-06T20:24:10;7.47;71.37
33109;HTU21D;19481;51.118;6.940;2023-04-06T20:29:12;7.50;70.87
33109;HTU21D;19481;51.118;6.940;2023-04-06T20:34:15;7.55;69.62
33109;HTU21D;19481;51.118;6.940;2023-04-06T20:39:17;7.56;70.16
33109;HTU21D;19481;51.118;6.940;2023-04-06T20:44:18;7.57;70.93
33109;HTU21D;19481;51.118;6.940;2023-04-06T20:49:22;7.60;68.44
33109;HTU21D;19481;51.118;6.940;2023-04-06T20:54:23;7.60;77.11
33109;HTU21D;19481;51.118;6.940;2023-04-06T20:59:25;7.64;70.85
33109;HTU21D;19481;51.118;6.940;2023-04-06T21:04:29;7.68;68.01
33109;HTU21D;19481;51.118;6.940;2023-04-06T21:09:32;7.67;70.22
33109;HTU21D;19481;51.118;6.940;2023-04-06T21:14:34;7.68;70.02
33109;HTU21D;19481;51.118;6.940;2023-04-06T21:19:37;7.74;70.97
33109;HTU21D;19481;51.118;6.940;2023-04-06T21:24:38;7.73;71.03
33109;HTU21D;19481;51.118;6.940;2023-04-06T21:29:41;7.74;68.87
33109;HTU21D;19481;51.118;6.940;2023-04-06T21:34:44;7.75;69.24
33109;HTU21D;19481;51.118;6.940;2023-04-06T21:39:46;7.76;69.99
33109;HTU21D;19481;51.118;6.940;2023-04-06T21:44:47;7.82;72.41
33109;HTU21D;19481;51.118;6.940;2023-04-06T21:49:50;7.78;68.62
33109;HTU21D;19481;51.118;6.940;2023-04-06T21:54:52;7.78;69.27
33109;HTU21D;19481;51.118;6.940;2023-04-06T21:59:53;7.76;73.48
33109;HTU21D;19481;51.118;6.940;2023-04-06T22:04:56;7.73;69.99
33109;HTU21D;19481;51.118;6.940;2023-04-06T22:09:58;7.77;70.54
33109;HTU21D;19481;51.118;6.940;2023-04-06T22:14:59;7.78;71.03
33109;HTU21D;19481;51.118;6.940;2023-04-06T22:20:03;7.76;76.47
33109;HTU21D;19481;51.118;6.940;2023-04-06T22:25:06;7.77;70.43
33109;HTU21D;19481;51.118;6.940;2023-04-06T22:30:09;7.74;71.71
33109;HTU21D;19481;51.118;6.940;2023-04-06T22:35:12;7.77;70.52
33109;HTU21D;19481;51.118;6.940;2023-04-06T22:40:13;7.74;71.73
33109;HTU21D;19481;51.118;6.940;2023-04-06T22:45:15;7.77;70.98
33109;HTU21D;19481;51.118;6.940;2023-04-06T22:50:18;7.77;70.40
33109;HTU21D;19481;51.118;6.940;2023-04-06T22:55:21;7.76;71.35
33109;HTU21D;19481;51.118;6.940;2023-04-06T23:00:22;7.77;70.77
33109;HTU21D;19481;51.118;6.940;2023-04-06T23:05:26;7.81;71.02
33109;HTU21D;19481;51.118;6.940;2023-04-06T23:10:27;7.81;71.32
33109;HTU21D;19481;51.118;6.940;2023-04-06T23:15:29;7.84;76.34
33109;HTU21D;19481;51.118;6.940;2023-04-06T23:20:32;7.87;70.59
33109;HTU21D;19481;51.118;6.940;2023-04-06T23:25:34;7.89;71.86
33109;HTU21D;19481;51.118;6.940;2023-04-06T23:30:35;7.90;70.71
33109;HTU21D;19481;51.118;6.940;2023-04-06T23:35:38;7.96;68.99
33109;HTU21D;19481;51.118;6.940;2023-04-06T23:40:40;7.92;70.64
33109;HTU21D;19481;51.118;6.940;2023-04-06T23:45:41;7.93;71.56
33109;HTU21D;19481;51.118;6.940;2023-04-06T23:50:44;7.93;74.30
33109;HTU21D;19481;51.118;6.940;2023-04-06T23:55:46;7.98;72.62
